sensor_id;sensor_type;location;lat;lon;timestamp;temperature;humidity
44707;DHT22;30433;45.596;8.408;2024-01-27T00:00:03;1.90;99.90
44707;DHT22;30433;45.596;8.408;2024-01-27T00:06:05;1.70;99.90
44707;DHT22;30433;45.596;8.408;2024-01-27T00:12:09;1.40;99.90
44707;DHT22;30433;45.596;8.408;2024-01-27T00:18:11;1.60;99.90
44707;DHT22;30433;45.596;8.408;2024-01-27T00:24:13;1.90;99.90
44707;DHT22;30433;45.596;8.408;2024-01-27T00:30:18;1.50;99.90
44707;DHT22;30433;45.596;8.408;2024-01-27T00:36:20;1.20;99.90
44707;DHT22;30433;45.596;8.408;2024-01-27T00:42:22;0.80;99.90
44707;DHT22;30433;45.596;8.408;2024-01-27T00:48:26;1.00;99.90
44707;DHT22;30433;45.596;8.408;2024-01-27T00:54:29;1.20;99.90
44707;DHT22;30433;45.596;8.408;2024-01-27T01:00:31;1.40;99.90
44707;DHT22;30433;45.596;8.408;2024-01-27T01:06:34;1.40;99.90
44707;DHT22;30433;45.596;8.408;2024-01-27T01:12:36;1.40;99.90
44707;DHT22;30433;45.596;8.408;2024-01-27T01:18:38;1.70;99.90
44707;DHT22;30433;45.596;8.408;2024-01-27T01:24:42;1.40;99.90
44707;DHT22;30433;45.596;8.408;2024-01-27T01:30:44;1.80;99.90
44707;DHT22;30433;45.596;8.408;2024-01-27T01:36:46;2.00;99.90
44707;DHT22;30433;45.596;8.408;2024-01-27T01:42:54;1.90;99.90
44707;DHT22;30433;45.596;8.408;2024-01-27T01:48:56;1.60;99.90
44707;DHT22;30433;45.596;8.408;2024-01-27T01:54:58;1.80;99.90
44707;DHT22;30433;45.596;8.408;2024-01-27T02:01:02;1.70;99.90
44707;DHT22;30433;45.596;8.408;2024-01-27T02:07:04;2.10;99.90
44707;DHT22;30433;45.596;8.408;2024-01-27T02:13:16;1.90;99.90
44707;DHT22;30433;45.596;8.408;2024-01-27T02:19:20;2.10;99.90
44707;DHT22;30433;45.596;8.408;2024-01-27T02:25:23;2.10;99.90
44707;DHT22;30433;45.596;8.408;2024-01-27T02:31:26;2.10;99.90
44707;DHT22;30433;45.596;8.408;2024-01-27T02:37:28;2.20;99.90
44707;DHT22;30433;45.596;8.408;2024-01-27T02:43:31;2.20;99.90
44707;DHT22;30433;45.596;8.408;2024-01-27T02:49:33;2.30;99.90
44707;DHT22;30433;45.596;8.408;2024-01-27T02:55:35;2.30;99.90
44707;DHT22;30433;45.596;8.408;2024-01-27T03:01:39;2.30;99.90
44707;DHT22;30433;45.596;8.408;2024-01-27T03:07:41;2.20;99.90
44707;DHT22;30433;45.596;8.408;2024-01-27T03:13:43;2.00;99.90
44707;DHT22;30433;45.596;8.408;2024-01-27T03:19:48;2.30;99.90
44707;DHT22;30433;45.596;8.408;2024-01-27T03:25:50;2.10;99.90
44707;DHT22;30433;45.596;8.408;2024-01-27T03:31:52;2.50;99.90
44707;DHT22;30433;45.596;8.408;2024-01-27T03:37:55;2.60;99.90
44707;DHT22;30433;45.596;8.408;2024-01-27T03:43:57;2.80;99.90
44707;DHT22;30433;45.596;8.408;2024-01-27T03:50:00;3.10;99.90
44707;DHT22;30433;45.596;8.408;2024-01-27T03:56:04;3.00;99.90
44707;DHT22;30433;45.596;8.408;2024-01-27T04:02:06;3.10;99.90
44707;DHT22;30433;45.596;8.408;2024-01-27T04:08:08;3.40;99.90
44707;DHT22;30433;45.596;8.408;2024-01-27T04:14:12;2.70;99.90
44707;DHT22;30433;45.596;8.408;2024-01-27T04:20:14;2.60;99.90
44707;DHT22;30433;45.596;8.408;2024-01-27T04:26:16;3.30;99.90
44707;DHT22;30433;45.596;8.408;2024-01-27T04:32:20;3.40;99.90
44707;DHT22;30433;45.596;8.408;2024-01-27T04:38:23;3.10;99.90
44707;DHT22;30433;45.596;8.408;2024-01-27T04:44:25;3.10;99.90
44707;DHT22;30433;45.596;8.408;2024-01-27T04:50:29;3.70;99.90
44707;DHT22;30433;45.596;8.408;2024-01-27T04:56:31;4.00;99.90
44707;DHT22;30433;45.596;8.408;2024-01-27T05:02:33;4.30;99.90
44707;DHT22;30433;45.596;8.408;2024-01-27T05:08:37;3.80;99.90
44707;DHT22;30433;45.596;8.408;2024-01-27T05:14:43;3.40;99.90
44707;DHT22;30433;45.596;8.408;2024-01-27T05:20:45;3.90;99.90
44707;DHT22;30433;45.596;8.408;2024-01-27T05:26:49;3.30;99.90
44707;DHT22;30433;45.596;8.408;2024-01-27T05:32:51;3.30;99.90
44707;DHT22;30433;45.596;8.408;2024-01-27T05:38:53;3.80;99.90
44707;DHT22;30433;45.596;8.408;2024-01-27T05:44:56;3.80;99.90
44707;DHT22;30433;45.596;8.408;2024-01-27T05:51:00;3.30;99.90
44707;DHT22;30433;45.596;8.408;2024-01-27T05:57:02;3.60;99.90
44707;DHT22;30433;45.596;8.408;2024-01-27T06:03:06;3.50;99.90
44707;DHT22;30433;45.596;8.408;2024-01-27T06:09:08;3.80;99.90
44707;DHT22;30433;45.596;8.408;2024-01-27T06:15:11;4.20;99.90
44707;DHT22;30433;45.596;8.408;2024-01-27T06:21:16;4.60;99.90
44707;DHT22;30433;45.596;8.408;2024-01-27T06:27:18;5.00;99.90
44707;DHT22;30433;45.596;8.408;2024-01-27T06:33:20;5.30;99.90
44707;DHT22;30433;45.596;8.408;2024-01-27T06:39:24;5.30;99.90
44707;DHT22;30433;45.596;8.408;2024-01-27T06:45:26;5.10;99.90
44707;DHT22;30433;45.596;8.408;2024-01-27T06:51:28;5.40;99.90
44707;DHT22;30433;45.596;8.408;2024-01-27T06:57:32;5.20;99.90
44707;DHT22;30433;45.596;8.408;2024-01-27T07:03:34;5.20;99.90
44707;DHT22;30433;45.596;8.408;2024-01-27T07:09:36;5.70;99.90
44707;DHT22;30433;45.596;8.408;2024-01-27T07:15:39;6.10;99.90
44707;DHT22;30433;45.596;8.408;2024-01-27T07:21:41;6.10;99.90
44707;DHT22;30433;45.596;8.408;2024-01-27T07:27:43;6.10;99.90
44707;DHT22;30433;45.596;8.408;2024-01-27T07:33:48;6.60;99.90
44707;DHT22;30433;45.596;8.408;2024-01-27T07:39:50;6.70;99.90
44707;DHT22;30433;45.596;8.408;2024-01-27T07:45:52;7.00;99.90
44707;DHT22;30433;45.596;8.408;2024-01-27T07:51:56;7.10;99.50
44707;DHT22;30433;45.596;8.408;2024-01-27T07:57:58;7.50;98.60
44707;DHT22;30433;45.596;8.408;2024-01-27T08:04:00;7.50;98.90
44707;DHT22;30433;45.596;8.408;2024-01-27T08:10:04;7.90;98.20
44707;DHT22;30433;45.596;8.408;2024-01-27T08:16:07;8.20;99.10
44707;DHT22;30433;45.596;8.408;2024-01-27T08:22:10;8.60;98.40
44707;DHT22;30433;45.596;8.408;2024-01-27T08:28:13;9.00;97.30
44707;DHT22;30433;45.596;8.408;2024-01-27T08:34:15;9.10;95.50
44707;DHT22;30433;45.596;8.408;2024-01-27T08:40:17;9.30;94.60
44707;DHT22;30433;45.596;8.408;2024-01-27T08:46:21;9.90;95.00
44707;DHT22;30433;45.596;8.408;2024-01-27T08:52:23;10.30;94.50
44707;DHT22;30433;45.596;8.408;2024-01-27T08:58:25;10.80;92.80
44707;DHT22;30433;45.596;8.408;2024-01-27T09:04:29;10.70;91.90
44707;DHT22;30433;45.596;8.408;2024-01-27T09:10:30;10.70;92.30
44707;DHT22;30433;45.596;8.408;2024-01-27T09:16:33;11.60;92.90
44707;DHT22;30433;45.596;8.408;2024-01-27T09:22:36;11.30;91.20
44707;DHT22;30433;45.596;8.408;2024-01-27T09:28:38;11.30;91.70
44707;DHT22;30433;45.596;8.408;2024-01-27T09:34:44;11.30;90.50
44707;DHT22;30433;45.596;8.408;2024-01-27T09:40:47;11.70;89.40
44707;DHT22;30433;45.596;8.408;2024-01-27T09:46:50;12.10;88.90
44707;DHT22;30433;45.596;8.408;2024-01-27T09:52:52;12.60;86.20
44707;DHT22;30433;45.596;8.408;2024-01-27T09:58:56;12.60;88.40
44707;DHT22;30433;45.596;8.408;2024-01-27T10:04:58;12.80;83.80
44707;DHT22;30433;45.596;8.408;2024-01-27T10:11:06;13.20;81.30
44707;DHT22;30433;45.596;8.408;2024-01-27T10:17:11;13.20;80.20
44707;DHT22;30433;45.596;8.408;2024-01-27T10:23:13;13.50;81.30
44707;DHT22;30433;45.596;8.408;2024-01-27T10:29:16;13.70;83.50
44707;DHT22;30433;45.596;8.408;2024-01-27T10:35:19;13.80;82.40
44707;DHT22;30433;45.596;8.408;2024-01-27T10:41:23;14.70;79.80
44707;DHT22;30433;45.596;8.408;2024-01-27T10:47:28;14.10;82.40
44707;DHT22;30433;45.596;8.408;2024-01-27T10:53:35;14.50;81.80
44707;DHT22;30433;45.596;8.408;2024-01-27T10:59:39;14.80;80.00
44707;DHT22;30433;45.596;8.408;2024-01-27T11:05:43;15.50;75.60
44707;DHT22;30433;45.596;8.408;2024-01-27T11:11:49;15.50;73.00
44707;DHT22;30433;45.596;8.408;2024-01-27T11:17:51;15.50;71.50
44707;DHT22;30433;45.596;8.408;2024-01-27T11:23:59;15.60;76.30
44707;DHT22;30433;45.596;8.408;2024-01-27T11:30:03;15.90;71.30
44707;DHT22;30433;45.596;8.408;2024-01-27T11:36:06;16.40;69.70
44707;DHT22;30433;45.596;8.408;2024-01-27T11:42:08;15.80;71.20
44707;DHT22;30433;45.596;8.408;2024-01-27T11:48:12;16.40;71.50
44707;DHT22;30433;45.596;8.408;2024-01-27T11:54:15;16.00;69.90
44707;DHT22;30433;45.596;8.408;2024-01-27T12:00:17;16.30;71.70
44707;DHT22;30433;45.596;8.408;2024-01-27T12:06:21;16.50;67.10
44707;DHT22;30433;45.596;8.408;2024-01-27T12:12:24;16.90;66.90
44707;DHT22;30433;45.596;8.408;2024-01-27T12:18:26;16.80;66.20
44707;DHT22;30433;45.596;8.408;2024-01-27T12:24:31;16.70;65.90
44707;DHT22;30433;45.596;8.408;2024-01-27T12:30:34;17.20;68.00
44707;DHT22;30433;45.596;8.408;2024-01-27T12:36:40;16.90;76.50
44707;DHT22;30433;45.596;8.408;2024-01-27T12:42:44;16.80;81.10
44707;DHT22;30433;45.596;8.408;2024-01-27T12:48:46;16.80;80.70
44707;DHT22;30433;45.596;8.408;2024-01-27T12:54:48;16.90;81.80
44707;DHT22;30433;45.596;8.408;2024-01-27T13:00:52;17.10;81.90
44707;DHT22;30433;45.596;8.408;2024-01-27T13:06:54;17.10;79.40
44707;DHT22;30433;45.596;8.408;2024-01-27T13:12:56;17.20;79.70
44707;DHT22;30433;45.596;8.408;2024-01-27T13:19:00;17.20;77.80
44707;DHT22;30433;45.596;8.408;2024-01-27T13:25:03;17.40;76.90
44707;DHT22;30433;45.596;8.408;2024-01-27T13:31:06;17.40;75.60
44707;DHT22;30433;45.596;8.408;2024-01-27T13:37:11;17.50;75.20
44707;DHT22;30433;45.596;8.408;2024-01-27T13:43:13;17.40;76.20
44707;DHT22;30433;45.596;8.408;2024-01-27T13:49:15;17.80;74.00
44707;DHT22;30433;45.596;8.408;2024-01-27T13:55:19;17.80;75.50
44707;DHT22;30433;45.596;8.408;2024-01-27T14:01:22;17.90;75.10
44707;DHT22;30433;45.596;8.408;2024-01-27T14:07:24;18.00;75.70
44707;DHT22;30433;45.596;8.408;2024-01-27T14:13:28;17.90;76.30
44707;DHT22;30433;45.596;8.408;2024-01-27T14:19:30;17.80;75.60
44707;DHT22;30433;45.596;8.408;2024-01-27T14:25:32;17.70;75.60
44707;DHT22;30433;45.596;8.408;2024-01-27T14:31:36;17.60;74.70
44707;DHT22;30433;45.596;8.408;2024-01-27T14:37:41;17.60;74.10
44707;DHT22;30433;45.596;8.408;2024-01-27T14:43:43;17.40;73.90
44707;DHT22;30433;45.596;8.408;2024-01-27T14:49:47;17.30;76.00
44707;DHT22;30433;45.596;8.408;2024-01-27T14:55:49;17.00;78.00
44707;DHT22;30433;45.596;8.408;2024-01-27T15:01:51;16.80;77.40
44707;DHT22;30433;45.596;8.408;2024-01-27T15:07:55;16.60;78.30
44707;DHT22;30433;45.596;8.408;2024-01-27T15:13:57;16.20;80.60
44707;DHT22;30433;45.596;8.408;2024-01-27T15:19:59;16.30;81.50
44707;DHT22;30433;45.596;8.408;2024-01-27T15:26:03;16.00;83.60
44707;DHT22;30433;45.596;8.408;2024-01-27T15:32:06;16.00;83.50
44707;DHT22;30433;45.596;8.408;2024-01-27T15:38:09;15.80;83.80
44707;DHT22;30433;45.596;8.408;2024-01-27T15:44:13;15.50;85.10
44707;DHT22;30433;45.596;8.408;2024-01-27T15:50:15;15.30;86.90
44707;DHT22;30433;45.596;8.408;2024-01-27T15:56:19;15.00;89.30
44707;DHT22;30433;45.596;8.408;2024-01-27T16:02:22;14.70;90.10
44707;DHT22;30433;45.596;8.408;2024-01-27T16:08:24;14.30;90.40
44707;DHT22;30433;45.596;8.408;2024-01-27T16:14:26;13.90;90.50
44707;DHT22;30433;45.596;8.408;2024-01-27T16:20:30;13.80;91.30
44707;DHT22;30433;45.596;8.408;2024-01-27T16:26:32;13.70;91.10
44707;DHT22;30433;45.596;8.408;2024-01-27T16:32:34;13.30;91.20
44707;DHT22;30433;45.596;8.408;2024-01-27T16:38:38;13.10;91.50
44707;DHT22;30433;45.596;8.408;2024-01-27T16:44:40;12.00;92.30
44707;DHT22;30433;45.596;8.408;2024-01-27T16:50:42;12.10;93.80
44707;DHT22;30433;45.596;8.408;2024-01-27T16:56:47;12.10;93.30
44707;DHT22;30433;45.596;8.408;2024-01-27T17:02:49;11.80;93.80
44707;DHT22;30433;45.596;8.408;2024-01-27T17:08:51;11.60;94.60
44707;DHT22;30433;45.596;8.408;2024-01-27T17:14:55;10.30;95.30
44707;DHT22;30433;45.596;8.408;2024-01-27T17:20:57;9.90;97.80
44707;DHT22;30433;45.596;8.408;2024-01-27T17:27:00;10.00;97.20
44707;DHT22;30433;45.596;8.408;2024-01-27T17:33:03;8.60;99.90
44707;DHT22;30433;45.596;8.408;2024-01-27T17:39:06;9.60;98.00
44707;DHT22;30433;45.596;8.408;2024-01-27T17:45:09;10.10;96.10
44707;DHT22;30433;45.596;8.408;2024-01-27T17:51:12;10.20;97.80
44707;DHT22;30433;45.596;8.408;2024-01-27T17:57:14;11.00;93.70
44707;DHT22;30433;45.596;8.408;2024-01-27T18:03:17;11.50;94.60
44707;DHT22;30433;45.596;8.408;2024-01-27T18:09:20;11.10;97.80
44707;DHT22;30433;45.596;8.408;2024-01-27T18:15:22;10.80;99.90
44707;DHT22;30433;45.596;8.408;2024-01-27T18:21:25;10.50;99.90
44707;DHT22;30433;45.596;8.408;2024-01-27T18:27:28;10.30;99.90
44707;DHT22;30433;45.596;8.408;2024-01-27T18:33:30;10.20;99.90
44707;DHT22;30433;45.596;8.408;2024-01-27T18:39:32;10.20;99.90
44707;DHT22;30433;45.596;8.408;2024-01-27T18:45:36;10.10;99.90
44707;DHT22;30433;45.596;8.408;2024-01-27T18:51:38;9.60;99.90
44707;DHT22;30433;45.596;8.408;2024-01-27T18:57:41;9.60;99.90
44707;DHT22;30433;45.596;8.408;2024-01-27T19:03:44;9.70;99.90
44707;DHT22;30433;45.596;8.408;2024-01-27T19:09:46;9.40;99.90
44707;DHT22;30433;45.596;8.408;2024-01-27T19:15:48;9.30;99.90
44707;DHT22;30433;45.596;8.408;2024-01-27T19:21:56;9.10;99.90
44707;DHT22;30433;45.596;8.408;2024-01-27T19:27:58;8.90;99.90
44707;DHT22;30433;45.596;8.408;2024-01-27T19:34:01;8.60;99.90
44707;DHT22;30433;45.596;8.408;2024-01-27T19:40:05;8.40;99.90
44707;DHT22;30433;45.596;8.408;2024-01-27T19:46:10;8.30;99.90
44707;DHT22;30433;45.596;8.408;2024-01-27T19:52:13;8.30;99.90
44707;DHT22;30433;45.596;8.408;2024-01-27T19:58:18;8.00;99.90
44707;DHT22;30433;45.596;8.408;2024-01-27T20:04:21;7.80;99.90
44707;DHT22;30433;45.596;8.408;2024-01-27T20:10:23;7.80;99.90
44707;DHT22;30433;45.596;8.408;2024-01-27T20:16:28;7.80;99.90
44707;DHT22;30433;45.596;8.408;2024-01-27T20:22:30;7.80;99.90
44707;DHT22;30433;45.596;8.408;2024-01-27T20:28:33;7.30;99.90
44707;DHT22;30433;45.596;8.408;2024-01-27T20:34:37;7.20;99.90
44707;DHT22;30433;45.596;8.408;2024-01-27T20:40:39;7.00;99.90
44707;DHT22;30433;45.596;8.408;2024-01-27T20:46:41;7.50;99.90
44707;DHT22;30433;45.596;8.408;2024-01-27T20:52:47;6.70;99.90
44707;DHT22;30433;45.596;8.408;2024-01-27T20:58:48;6.40;99.90
44707;DHT22;30433;45.596;8.408;2024-01-27T21:04:51;6.50;99.90
44707;DHT22;30433;45.596;8.408;2024-01-27T21:10:54;7.10;99.90
44707;DHT22;30433;45.596;8.408;2024-01-27T21:16:57;7.00;99.90
44707;DHT22;30433;45.596;8.408;2024-01-27T21:22:59;6.50;99.90
44707;DHT22;30433;45.596;8.408;2024-01-27T21:29:04;6.20;99.90
44707;DHT22;30433;45.596;8.408;2024-01-27T21:35:08;6.20;99.90
44707;DHT22;30433;45.596;8.408;2024-01-27T21:41:11;6.30;99.90
44707;DHT22;30433;45.596;8.408;2024-01-27T21:47:15;6.70;99.90
44707;DHT22;30433;45.596;8.408;2024-01-27T21:53:17;6.30;99.90
44707;DHT22;30433;45.596;8.408;2024-01-27T21:59:19;6.00;99.90
44707;DHT22;30433;45.596;8.408;2024-01-27T22:05:23;6.70;99.90
44707;DHT22;30433;45.596;8.408;2024-01-27T22:11:25;6.80;99.90
44707;DHT22;30433;45.596;8.408;2024-01-27T22:17:27;6.80;99.90
44707;DHT22;30433;45.596;8.408;2024-01-27T22:23:31;6.80;99.90
44707;DHT22;30433;45.596;8.408;2024-01-27T22:29:33;6.70;99.90
44707;DHT22;30433;45.596;8.408;2024-01-27T22:35:35;6.70;99.90
44707;DHT22;30433;45.596;8.408;2024-01-27T22:41:38;6.60;99.90
44707;DHT22;30433;45.596;8.408;2024-01-27T22:47:41;6.50;99.90
44707;DHT22;30433;45.596;8.408;2024-01-27T22:53:43;6.60;99.90
44707;DHT22;30433;45.596;8.408;2024-01-27T22:59:46;6.60;99.90
44707;DHT22;30433;45.596;8.408;2024-01-27T23:05:48;6.50;99.90
44707;DHT22;30433;45.596;8.408;2024-01-27T23:11:50;6.20;99.90
44707;DHT22;30433;45.596;8.408;2024-01-27T23:17:54;6.30;99.90
44707;DHT22;30433;45.596;8.408;2024-01-27T23:23:56;6.10;99.90
44707;DHT22;30433;45.596;8.408;2024-01-27T23:29:58;6.00;99.90
44707;DHT22;30433;45.596;8.408;2024-01-27T23:36:02;5.90;99.90
44707;DHT22;30433;45.596;8.408;2024-01-27T23:42:04;5.90;99.90
44707;DHT22;30433;45.596;8.408;2024-01-27T23:48:07;5.60;99.90
44707;DHT22;30433;45.596;8.408;2024-01-27T23:54:10;5.50;99.90
